Time,TemperatureF,DewpointF,PressureIn,WindDirection,WindDirectionDegrees,WindSpeedMPH,WindSpeedGustMPH,Humidity,HourlyPrecipIn,Conditions,Clouds,dailyrainin,SoftwareType,DateUTC
2013-06-18 00:05:00,67.5,46.5,29.21,East,87,5.4,27.1,47,2.68,,,0.43,VWS V13.01,2013-06-18 04:05:00,
2013-06-18 00:10:00,67.1,47.3,29.21,ENE,76,5.4,27.1,49,2.68,,,0.43,VWS V13.01,2013-06-18 04:10:00,
2013-06-18 00:15:00,67.1,47.3,29.21,ESE,109,5.4,27.1,49,2.68,,,0.43,VWS V13.01,2013-06-18 04:15:00,
2013-06-18 00:20:00,67.1,47.9,29.21,SSE,151,5.8,27.1,50,2.68,,,0.43,VWS V13.01,2013-06-18 04:20:00,
2013-06-18 00:25:00,67.3,48.5,29.21,ESE,116,4.9,27.1,51,2.68,,,0.43,VWS V13.01,2013-06-18 04:25:00,
2013-06-18 00:30:00,67.1,49.9,29.21,ENE,70,4.0,27.1,54,2.68,,,0.43,VWS V13.01,2013-06-18 04:30:00,
2013-06-18 00:35:00,66.9,49.8,29.21,ESE,105,4.0,27.1,54,2.68,,,0.43,VWS V13.01,2013-06-18 04:35:00,
2013-06-18 00:40:00,66.9,49.8,29.21,East,92,5.8,27.1,54,2.68,,,0.43,VWS V13.01,2013-06-18 04:40:00,
2013-06-18 00:45:00,66.9,49.2,29.21,East,82,2.2,27.1,53,2.68,,,0.43,VWS V13.01,2013-06-18 04:45:00,
2013-06-18 00:50:00,66.9,48.7,29.21,East,93,4.0,27.1,52,2.68,,,0.43,VWS V13.01,2013-06-18 04:50:00,
2013-06-18 00:55:00,66.9,48.7,29.21,ENE,69,6.3,27.1,52,2.68,,,0.43,VWS V13.01,2013-06-18 04:55:00,
2013-06-18 01:00:00,66.9,48.7,29.18,East,99,8.7,27.1,52,2.68,,,0.43,VWS V13.01,2013-06-18 05:00:00,
2013-06-18 01:05:00,66.9,48.2,29.18,SE,133,8.7,27.1,51,2.68,,,0.43,VWS V13.01,2013-06-18 05:05:00,
2013-06-18 01:11:00,67.3,46.9,29.18,East,87,7.6,27.1,48,2.68,,,0.43,VWS V13.01,2013-06-18 05:11:00,
2013-06-18 01:16:00,67.5,46.5,29.18,ESE,121,8.1,27.1,47,2.68,,,0.43,VWS V13.01,2013-06-18 05:16:00,
2013-06-18 01:21:00,67.5,45.4,29.18,ESE,121,6.3,27.1,45,2.68,,,0.43,VWS V13.01,2013-06-18 05:21:00,
2013-06-18 01:26:00,67.5,46.0,29.18,ESE,118,3.1,27.1,46,2.68,,,0.43,VWS V13.01,2013-06-18 05:26:00,
2013-06-18 01:31:00,67.3,45.8,29.18,SE,136,4.0,27.1,46,2.68,,,0.43,VWS V13.01,2013-06-18 05:31:00,
2013-06-18 01:36:00,67.3,45.8,29.18,SSE,155,4.0,27.1,46,2.68,,,0.43,VWS V13.01,2013-06-18 05:36:00,
2013-06-18 01:41:00,67.3,45.8,29.18,SE,136,5.4,27.1,46,2.68,,,0.43,VWS V13.01,2013-06-18 05:41:00,
2013-06-18 01:46:00,67.3,45.8,29.18,SE,143,0.0,27.1,46,2.68,,,0.43,VWS V13.01,2013-06-18 05:46:00,
2013-06-18 01:51:00,67.3,45.8,29.18,SSE,160,2.7,27.1,46,2.68,,,0.43,VWS V13.01,2013-06-18 05:51:00,
2013-06-18 01:56:00,67.3,46.4,29.18,SE,145,2.2,27.1,47,2.68,,,0.43,VWS V13.01,2013-06-18 05:56:00,
2013-06-18 02:01:00,67.1,47.3,29.18,ENE,68,6.3,27.1,49,2.68,,,0.43,VWS V13.01,2013-06-18 06:01:00,
2013-06-18 02:06:00,66.9,47.2,29.18,SE,139,0.0,27.1,49,2.68,,,0.43,VWS V13.01,2013-06-18 06:06:00,
2013-06-18 02:11:00,66.9,47.2,29.18,East,97,0.0,27.1,49,2.68,,,0.43,VWS V13.01,2013-06-18 06:11:00,
2013-06-18 02:16:00,66.9,47.2,29.15,East,97,0.0,27.1,49,2.68,,,0.43,VWS V13.01,2013-06-18 06:16:00,
2013-06-18 02:21:00,66.7,47.5,29.15,East,96,0.0,27.1,50,2.68,,,0.43,VWS V13.01,2013-06-18 06:21:00,
2013-06-18 02:26:00,66.7,47.5,29.15,North,353,0.0,27.1,50,2.68,,,0.43,VWS V13.01,2013-06-18 06:26:00,
2013-06-18 02:31:00,66.7,48.1,29.15,North,353,0.0,27.1,51,2.68,,,0.43,VWS V13.01,2013-06-18 06:31:00,
2013-06-18 02:36:00,66.9,48.2,29.15,WNW,303,0.0,27.1,51,2.68,,,0.43,VWS V13.01,2013-06-18 06:36:00,
2013-06-18 02:41:00,66.9,48.2,29.15,SW,229,4.0,27.1,51,2.68,,,0.43,VWS V13.01,2013-06-18 06:41:00,
2013-06-18 02:46:00,66.9,49.2,29.18,SW,227,4.0,27.1,53,2.68,,,0.43,VWS V13.01,2013-06-18 06:46:00,
2013-06-18 02:51:00,66.7,50.1,29.18,SW,217,2.7,27.1,55,2.68,,,0.43,VWS V13.01,2013-06-18 06:51:00,
2013-06-18 02:56:00,66.6,50.4,29.18,SSW,211,3.1,27.1,56,2.68,,,0.43,VWS V13.01,2013-06-18 06:56:00,
2013-06-18 03:01:00,66.4,50.7,29.18,SSW,210,0.0,27.1,57,2.68,,,0.43,VWS V13.01,2013-06-18 07:01:00,
2013-06-18 03:06:00,66.4,50.7,29.18,SSW,210,0.0,27.1,57,2.68,,,0.43,VWS V13.01,2013-06-18 07:06:00,
2013-06-18 03:11:00,66.2,51.0,29.18,SSW,210,0.0,27.1,58,2.72,,,0.47,VWS V13.01,2013-06-18 07:11:00,
2013-06-18 03:16:00,66.2,51.0,29.18,SSW,210,0.0,27.1,58,2.72,,,0.47,VWS V13.01,2013-06-18 07:16:00,
2013-06-18 03:21:00,66.2,51.0,29.18,SSW,210,0.0,27.1,58,2.72,,,0.47,VWS V13.01,2013-06-18 07:21:00,
2013-06-18 03:26:00,66.0,51.3,29.18,SSW,210,0.0,27.1,59,2.72,,,0.47,VWS V13.01,2013-06-18 07:26:00,
2013-06-18 03:31:00,66.0,51.3,29.18,SSW,210,0.0,27.1,59,2.72,,,0.47,VWS V13.01,2013-06-18 07:31:00,
2013-06-18 03:36:00,66.0,51.3,29.18,SSW,209,0.0,27.1,59,2.72,,,0.47,VWS V13.01,2013-06-18 07:36:00,
2013-06-18 03:41:00,66.0,51.8,29.18,SSW,210,0.0,27.1,60,2.72,,,0.47,VWS V13.01,2013-06-18 07:41:00,
2013-06-18 03:46:00,66.0,51.8,29.18,SSW,210,0.0,27.1,60,2.72,,,0.47,VWS V13.01,2013-06-18 07:46:00,
2013-06-18 03:51:00,66.0,51.8,29.18,SSW,210,2.7,27.1,60,2.72,,,0.47,VWS V13.01,2013-06-18 07:51:00,
2013-06-18 03:56:00,66.0,51.8,29.18,SSW,210,0.0,27.1,60,2.72,,,0.51,VWS V13.01,2013-06-18 07:56:00,
2013-06-18 04:01:00,65.8,51.6,29.18,SSW,210,0.0,27.1,60,2.76,,,0.51,VWS V13.01,2013-06-18 08:01:00,
2013-06-18 04:06:00,66.0,51.8,29.18,SSW,210,0.0,27.1,60,2.76,,,0.51,VWS V13.01,2013-06-18 08:06:00,
2013-06-18 04:11:00,66.0,51.8,29.18,SSW,210,0.0,27.1,60,2.76,,,0.51,VWS V13.01,2013-06-18 08:11:00,
2013-06-18 04:16:00,66.0,51.8,29.18,SSW,210,0.0,27.1,60,2.76,,,0.51,VWS V13.01,2013-06-18 08:16:00,
2013-06-18 04:21:00,66.0,52.2,29.18,SSW,210,0.0,27.1,61,2.76,,,0.51,VWS V13.01,2013-06-18 08:21:00,
2013-06-18 04:26:00,66.0,52.2,29.18,SSW,210,0.0,27.1,61,2.76,,,0.51,VWS V13.01,2013-06-18 08:26:00,
2013-06-18 04:31:00,66.0,52.2,29.15,SSW,210,0.0,27.1,61,2.76,,,0.51,VWS V13.01,2013-06-18 08:31:00,
2013-06-18 04:36:00,66.0,52.2,29.15,SSW,210,0.0,27.1,61,2.76,,,0.51,VWS V13.01,2013-06-18 08:36:00,
2013-06-18 04:41:00,66.0,52.2,29.15,SSW,210,0.0,27.1,61,2.76,,,0.51,VWS V13.01,2013-06-18 08:41:00,
2013-06-18 04:46:00,66.0,52.6,29.18,SSW,210,0.0,27.1,62,2.76,,,0.51,VWS V13.01,2013-06-18 08:46:00,
2013-06-18 04:51:00,66.0,52.6,29.18,SSW,210,0.0,27.1,62,2.76,,,0.51,VWS V13.01,2013-06-18 08:51:00,
2013-06-18 04:56:00,66.0,52.6,29.18,SSW,210,0.0,27.1,62,2.76,,,0.51,VWS V13.01,2013-06-18 08:56:00,
2013-06-18 05:01:00,66.0,52.6,29.18,SSW,210,0.0,27.1,62,2.76,,,0.51,VWS V13.01,2013-06-18 09:01:00,
2013-06-18 05:06:00,66.0,52.6,29.18,SSW,210,2.7,27.1,62,2.80,,,0.55,VWS V13.01,2013-06-18 09:06:00,
2013-06-18 05:11:00,66.0,52.6,29.18,SSW,210,0.0,27.1,62,2.80,,,0.55,VWS V13.01,2013-06-18 09:11:00,
2013-06-18 05:16:00,66.0,53.1,29.18,SSW,210,0.0,27.1,63,2.80,,,0.55,VWS V13.01,2013-06-18 09:16:00,
2013-06-18 05:21:00,66.0,53.1,29.18,SSW,210,0.0,27.1,63,2.80,,,0.55,VWS V13.01,2013-06-18 09:21:00,
2013-06-18 05:26:00,66.0,53.1,29.18,SSW,210,0.0,27.1,63,2.80,,,0.55,VWS V13.01,2013-06-18 09:26:00,
2013-06-18 05:31:00,66.0,53.1,29.18,SSW,210,0.0,27.1,63,2.80,,,0.55,VWS V13.01,2013-06-18 09:31:00,
2013-06-18 05:36:00,65.8,52.9,29.18,SSW,210,0.0,27.1,63,2.80,,,0.55,VWS V13.01,2013-06-18 09:36:00,
2013-06-18 05:41:00,65.7,52.7,29.18,SSW,210,0.0,27.1,63,2.83,,,0.59,VWS V13.01,2013-06-18 09:41:00,
2013-06-18 05:46:00,65.7,52.7,29.18,SSW,210,2.2,27.1,63,2.83,,,0.59,VWS V13.01,2013-06-18 09:46:00,
2013-06-18 05:51:00,65.7,52.7,29.18,SSW,210,2.2,27.1,63,2.83,,,0.59,VWS V13.01,2013-06-18 09:51:00,
2013-06-18 05:56:00,65.8,52.9,29.18,SSW,210,0.0,27.1,63,2.83,,,0.59,VWS V13.01,2013-06-18 09:56:00,
2013-06-18 06:01:00,65.8,52.9,29.18,SSW,210,0.0,27.1,63,2.83,,,0.59,VWS V13.01,2013-06-18 10:01:00,
2013-06-18 06:06:00,65.8,52.9,29.18,West,267,0.0,27.1,63,2.83,,,0.59,VWS V13.01,2013-06-18 10:06:00,
2013-06-18 06:11:00,65.8,53.3,29.18,WNW,302,0.0,27.1,64,2.83,,,0.59,VWS V13.01,2013-06-18 10:11:00,
2013-06-18 06:16:00,65.8,53.3,29.18,WNW,302,0.0,27.1,64,2.83,,,0.59,VWS V13.01,2013-06-18 10:16:00,
2013-06-18 06:21:00,65.8,53.3,29.18,WNW,302,0.0,27.1,64,2.83,,,0.59,VWS V13.01,2013-06-18 10:21:00,
2013-06-18 06:26:00,65.8,53.3,29.18,WNW,302,0.0,27.1,64,2.83,,,0.59,VWS V13.01,2013-06-18 10:26:00,
2013-06-18 06:31:00,65.8,53.3,29.18,WNW,302,0.0,27.1,64,2.87,,,0.63,VWS V13.01,2013-06-18 10:31:00,
2013-06-18 06:36:00,65.8,53.3,29.18,WNW,300,0.0,27.1,64,2.87,,,0.63,VWS V13.01,2013-06-18 10:36:00,
2013-06-18 06:41:00,65.8,53.3,29.18,WNW,293,0.0,27.1,64,2.87,,,0.63,VWS V13.01,2013-06-18 10:41:00,
2013-06-18 06:46:00,65.8,53.3,29.18,South,189,3.1,27.1,64,2.87,,,0.63,VWS V13.01,2013-06-18 10:46:00,
2013-06-18 06:51:00,65.8,53.3,29.18,SE,139,2.7,27.1,64,2.87,,,0.63,VWS V13.01,2013-06-18 10:51:00,
2013-06-18 06:56:00,65.8,53.3,29.18,ESE,121,0.0,27.1,64,2.87,,,0.63,VWS V13.01,2013-06-18 10:56:00,
2013-06-18 07:01:00,65.8,53.3,29.18,East,92,2.7,27.1,64,2.87,,,0.63,VWS V13.01,2013-06-18 11:01:00,
2013-06-18 07:06:00,65.7,53.6,29.18,East,91,0.0,27.1,65,2.87,,,0.63,VWS V13.01,2013-06-18 11:06:00,
2013-06-18 07:11:00,65.7,53.6,29.18,East,94,3.1,27.1,65,2.87,,,0.63,VWS V13.01,2013-06-18 11:11:00,
2013-06-18 07:16:00,65.7,53.6,29.18,ESE,104,2.2,27.1,65,2.87,,,0.63,VWS V13.01,2013-06-18 11:16:00,
2013-06-18 07:21:00,65.7,53.6,29.18,East,100,2.7,27.1,65,2.87,,,0.63,VWS V13.01,2013-06-18 11:21:00,
2013-06-18 07:26:00,65.7,53.6,29.18,ESE,114,2.7,27.1,65,2.87,,,0.63,VWS V13.01,2013-06-18 11:26:00,
2013-06-18 07:31:00,65.7,54.0,29.18,ESE,102,0.0,27.1,66,2.87,,,0.63,VWS V13.01,2013-06-18 11:31:00,
2013-06-18 07:36:00,65.8,54.2,29.18,ENE,76,0.0,27.1,66,2.87,,,0.63,VWS V13.01,2013-06-18 11:36:00,
2013-06-18 07:41:00,65.8,54.2,29.18,ENE,73,0.0,27.1,66,2.87,,,0.63,VWS V13.01,2013-06-18 11:41:00,
2013-06-18 07:46:00,65.8,54.2,29.18,ESE,108,0.0,27.1,66,2.87,,,0.63,VWS V13.01,2013-06-18 11:46:00,
2013-06-18 07:51:00,65.8,54.2,29.18,ENE,59,3.1,27.1,66,2.87,,,0.63,VWS V13.01,2013-06-18 11:51:00,
2013-06-18 07:56:00,65.8,54.2,29.18,ESE,122,0.0,27.1,66,2.87,,,0.63,VWS V13.01,2013-06-18 11:56:00,
2013-06-18 08:01:00,66.0,54.3,29.18,East,94,0.0,27.1,66,2.87,,,0.63,VWS V13.01,2013-06-18 12:01:00,
2013-06-18 08:06:00,66.0,54.3,29.18,ESE,105,0.0,27.1,66,2.87,,,0.63,VWS V13.01,2013-06-18 12:06:00,
2013-06-18 08:11:00,66.0,54.3,29.18,ESE,105,0.0,27.1,66,2.87,,,0.63,VWS V13.01,2013-06-18 12:11:00,
2013-06-18 08:16:00,66.0,54.3,29.18,ESE,105,0.0,27.1,66,2.91,,,0.67,VWS V13.01,2013-06-18 12:16:00,
2013-06-18 08:21:00,66.0,54.3,29.18,ENE,63,0.0,27.1,66,2.91,,,0.67,VWS V13.01,2013-06-18 12:21:00,
2013-06-18 08:27:00,66.0,54.3,29.18,ENE,60,0.0,27.1,66,2.91,,,0.67,VWS V13.01,2013-06-18 12:27:00,
2013-06-18 08:32:00,66.0,54.3,29.18,SE,124,0.0,27.1,66,2.91,,,0.67,VWS V13.01,2013-06-18 12:32:00,
2013-06-18 08:37:00,66.0,54.3,29.18,East,92,0.0,27.1,66,2.91,,,0.67,VWS V13.01,2013-06-18 12:37:00,
2013-06-18 08:42:00,66.0,54.3,29.18,East,95,0.0,27.1,66,2.91,,,0.67,VWS V13.01,2013-06-18 12:42:00,
2013-06-18 08:47:00,66.0,54.3,29.18,East,95,0.0,27.1,66,2.91,,,0.67,VWS V13.01,2013-06-18 12:47:00,
2013-06-18 08:52:00,66.2,54.1,29.18,East,95,0.0,27.1,65,2.91,,,0.67,VWS V13.01,2013-06-18 12:52:00,
2013-06-18 08:57:00,66.2,54.1,29.21,NNW,343,0.0,27.1,65,2.91,,,0.67,VWS V13.01,2013-06-18 12:57:00,
2013-06-18 09:02:00,66.2,54.1,29.21,NNW,343,0.0,27.1,65,2.95,,,0.71,VWS V13.01,2013-06-18 13:02:00,
2013-06-18 09:07:00,66.2,54.1,29.21,NW,326,0.0,27.1,65,2.95,,,0.71,VWS V13.01,2013-06-18 13:07:00,
2013-06-18 09:12:00,66.2,54.1,29.21,NNW,339,0.0,27.1,65,2.95,,,0.71,VWS V13.01,2013-06-18 13:12:00,
2013-06-18 09:17:00,66.4,54.3,29.21,NW,305,0.0,27.1,65,2.95,,,0.71,VWS V13.01,2013-06-18 13:17:00,
2013-06-18 09:22:00,66.6,54.4,29.21,NW,305,0.0,27.1,65,2.95,,,0.71,VWS V13.01,2013-06-18 13:22:00,
2013-06-18 09:27:00,66.6,54.4,29.21,NW,305,0.0,27.1,65,2.95,,,0.71,VWS V13.01,2013-06-18 13:27:00,
2013-06-18 09:32:00,66.6,54.4,29.21,NW,321,0.0,27.1,65,2.95,,,0.71,VWS V13.01,2013-06-18 13:32:00,
2013-06-18 09:37:00,66.6,54.4,29.21,NW,310,5.8,27.1,65,3.03,,,0.79,VWS V13.01,2013-06-18 13:37:00,
2013-06-18 09:42:00,66.6,54.4,29.21,North,0,2.7,27.1,65,3.03,,,0.79,VWS V13.01,2013-06-18 13:42:00,
2013-06-18 09:47:00,66.6,54.4,29.21,WNW,295,3.6,27.1,65,3.03,,,0.79,VWS V13.01,2013-06-18 13:47:00,
2013-06-18 09:52:00,66.6,54.4,29.21,NNW,344,0.0,27.1,65,3.03,,,0.79,VWS V13.01,2013-06-18 13:52:00,
2013-06-18 09:57:00,66.7,54.6,29.21,NNW,328,0.0,27.1,65,3.03,,,0.79,VWS V13.01,2013-06-18 13:57:00,
2013-06-18 10:02:00,66.6,54.4,29.21,NW,315,0.0,27.1,65,3.03,,,0.79,VWS V13.01,2013-06-18 14:02:00,
2013-06-18 10:07:00,66.6,54.4,29.21,NE,45,0.0,27.1,65,3.03,,,0.79,VWS V13.01,2013-06-18 14:07:00,
2013-06-18 10:12:00,66.4,54.3,29.21,North,3,3.6,27.1,65,3.03,,,0.79,VWS V13.01,2013-06-18 14:12:00,
2013-06-18 10:17:00,66.4,54.3,29.21,NNW,340,3.1,27.1,65,3.03,,,0.79,VWS V13.01,2013-06-18 14:17:00,
2013-06-18 10:22:00,66.4,54.3,29.21,NNE,31,2.2,27.1,65,3.07,,,0.83,VWS V13.01,2013-06-18 14:22:00,
2013-06-18 10:28:00,66.6,54.4,29.23,NNE,20,0.0,27.1,65,3.07,,,0.83,VWS V13.01,2013-06-18 14:28:00,
2013-06-18 10:33:00,66.6,54.4,29.23,NNE,20,0.0,27.1,65,3.07,,,0.83,VWS V13.01,2013-06-18 14:33:00,
2013-06-18 10:38:00,66.7,54.6,29.23,NNE,20,0.0,27.1,65,3.07,,,0.83,VWS V13.01,2013-06-18 14:38:00,
2013-06-18 10:43:00,66.7,54.6,29.23,NNE,20,0.0,27.1,65,3.07,,,0.83,VWS V13.01,2013-06-18 14:43:00,
2013-06-18 10:48:00,66.7,54.6,29.23,SE,129,2.2,27.1,65,3.07,,,0.83,VWS V13.01,2013-06-18 14:48:00,
2013-06-18 10:53:00,66.9,54.4,29.23,ESE,117,2.7,27.1,64,3.11,,,0.87,VWS V13.01,2013-06-18 14:53:00,
2013-06-18 10:58:00,66.9,54.4,29.21,SSE,150,0.0,27.1,64,3.11,,,0.87,VWS V13.01,2013-06-18 14:58:00,
2013-06-18 11:03:00,66.9,54.4,29.21,SSE,150,0.0,27.1,64,3.11,,,0.87,VWS V13.01,2013-06-18 15:03:00,
2013-06-18 11:08:00,66.9,54.4,29.21,SSE,150,0.0,27.1,64,3.11,,,0.87,VWS V13.01,2013-06-18 15:08:00,
2013-06-18 11:13:00,67.1,54.5,29.23,SW,229,0.0,27.1,64,3.11,,,0.87,VWS V13.01,2013-06-18 15:13:00,
2013-06-18 11:18:00,67.3,54.7,29.23,South,178,0.0,27.1,64,3.11,,,0.87,VWS V13.01,2013-06-18 15:18:00,
2013-06-18 11:23:00,67.3,54.7,29.23,SW,220,0.0,27.1,64,3.11,,,0.87,VWS V13.01,2013-06-18 15:23:00,
2013-06-18 11:28:00,67.3,54.7,29.23,SW,228,0.0,27.1,64,3.11,,,0.87,VWS V13.01,2013-06-18 15:28:00,
2013-06-18 11:33:00,67.5,54.9,29.23,SSW,198,0.0,27.1,64,3.11,,,0.87,VWS V13.01,2013-06-18 15:33:00,
2013-06-18 11:38:00,67.6,55.0,29.23,SSE,167,0.0,27.1,64,3.11,,,0.00,VWS V13.01,2013-06-18 15:38:00,
2013-06-18 11:43:00,67.8,55.2,29.21,NE,41,3.1,27.1,64,3.11,,,0.00,VWS V13.01,2013-06-18 15:43:00,
2013-06-18 11:48:00,68.0,55.4,29.21,NNE,27,0.0,27.1,64,3.11,,,0.00,VWS V13.01,2013-06-18 15:48:00,
2013-06-18 11:53:00,68.4,55.7,29.21,SE,124,0.0,27.1,64,3.11,,,0.00,VWS V13.01,2013-06-18 15:53:00,
2013-06-18 11:58:00,68.5,55.5,29.21,SSE,152,2.2,27.1,63,3.11,,,0.00,VWS V13.01,2013-06-18 15:58:00,
2013-06-18 12:03:00,68.7,55.6,29.21,SSE,152,0.0,27.1,63,3.11,,,0.00,VWS V13.01,2013-06-18 16:03:00,
2013-06-18 12:08:00,69.1,55.5,29.21,ESE,122,0.0,27.1,62,3.11,,,0.00,VWS V13.01,2013-06-18 16:08:00,
2013-06-18 12:13:00,69.4,55.0,29.21,SSE,165,0.0,27.1,60,3.11,,,0.00,VWS V13.01,2013-06-18 16:13:00,
2013-06-18 12:18:00,69.6,54.2,29.21,SSW,193,2.2,27.1,58,3.11,,,0.00,VWS V13.01,2013-06-18 16:18:00,
2013-06-18 12:23:00,69.8,51.9,29.21,SE,139,0.0,27.1,53,3.11,,,0.00,VWS V13.01,2013-06-18 16:23:00,
2013-06-18 12:28:00,69.8,50.3,29.21,East,95,3.6,27.1,50,3.11,,,0.00,VWS V13.01,2013-06-18 16:28:00,
2013-06-18 12:33:00,69.8,46.3,29.21,ESE,119,4.0,27.1,43,3.11,,,0.00,VWS V13.01,2013-06-18 16:33:00,
2013-06-18 12:38:00,69.8,45.7,29.21,NE,51,0.0,27.1,42,3.11,,,0.00,VWS V13.01,2013-06-18 16:38:00,
2013-06-18 12:43:00,70.2,47.2,29.21,SE,142,4.0,27.1,44,3.11,,,0.00,VWS V13.01,2013-06-18 16:43:00,
2013-06-18 12:48:00,70.5,47.6,29.21,SSE,150,0.0,27.1,44,3.11,,,0.00,VWS V13.01,2013-06-18 16:48:00,
2013-06-18 12:53:00,70.7,46.5,29.21,ESE,122,2.7,27.1,42,3.11,,,0.00,VWS V13.01,2013-06-18 16:53:00,
2013-06-18 12:58:00,70.7,43.9,29.21,SE,144,2.7,27.1,38,3.11,,,0.00,VWS V13.01,2013-06-18 16:58:00,
2013-06-18 13:03:00,70.9,43.3,29.21,SSE,161,0.0,27.1,37,3.11,,,0.00,VWS V13.01,2013-06-18 17:03:00,
2013-06-18 13:08:00,71.1,44.2,29.21,SE,139,5.4,27.1,38,3.11,,,0.00,VWS V13.01,2013-06-18 17:08:00,
2013-06-18 13:13:00,70.9,42.6,29.18,SE,131,4.0,27.1,36,3.11,,,0.00,VWS V13.01,2013-06-18 17:13:00,
2013-06-18 13:18:00,71.1,42.8,29.18,SSE,165,2.7,27.1,36,3.11,,,0.00,VWS V13.01,2013-06-18 17:18:00,
2013-06-18 13:23:00,71.1,42.8,29.18,SSE,153,2.7,27.1,36,3.11,,,0.00,VWS V13.01,2013-06-18 17:23:00,
2013-06-18 13:28:00,71.4,42.4,29.18,SE,136,0.0,27.1,35,3.11,,,0.00,VWS V13.01,2013-06-18 17:28:00,
2013-06-18 13:33:00,71.8,41.2,29.18,SE,145,0.0,27.1,33,3.11,,,0.00,VWS V13.01,2013-06-18 17:33:00,
2013-06-18 13:38:00,72.0,41.3,29.18,ESE,112,0.0,27.1,33,3.11,,,0.00,VWS V13.01,2013-06-18 17:38:00,
2013-06-18 13:43:00,72.1,40.7,29.21,East,92,2.2,27.1,32,3.11,,,0.00,VWS V13.01,2013-06-18 17:43:00,
2013-06-18 13:48:00,72.5,41.0,29.21,NE,48,0.0,27.1,32,3.11,,,0.00,VWS V13.01,2013-06-18 17:48:00,
2013-06-18 13:53:00,72.7,41.2,29.21,SSE,159,2.2,27.1,32,3.11,,,0.00,VWS V13.01,2013-06-18 17:53:00,
2013-06-18 13:58:00,73.2,41.6,29.18,SSW,209,0.0,27.1,32,3.11,,,0.00,VWS V13.01,2013-06-18 17:58:00,
2013-06-18 14:03:00,73.4,40.1,29.18,ESE,102,0.0,27.1,30,3.11,,,0.00,VWS V13.01,2013-06-18 18:03:00,
2013-06-18 14:08:00,73.8,41.3,29.18,ENE,57,0.0,27.1,31,3.11,,,0.00,VWS V13.01,2013-06-18 18:08:00,
2013-06-18 14:13:00,74.5,41.9,29.18,NNW,341,3.6,27.1,31,3.11,,,0.00,VWS V13.01,2013-06-18 18:13:00,
2013-06-18 14:18:00,75.2,37.0,29.18,WNW,301,4.0,27.1,25,3.11,,,0.00,VWS V13.01,2013-06-18 18:18:00,
2013-06-18 14:23:00,75.4,37.2,29.18,NNW,329,4.0,27.1,25,3.11,,,0.00,VWS V13.01,2013-06-18 18:23:00,
2013-06-18 14:28:00,75.2,37.0,29.21,WNW,295,0.0,27.1,25,3.11,,,0.00,VWS V13.01,2013-06-18 18:28:00,
2013-06-18 14:33:00,75.4,36.1,29.21,WNW,288,5.4,27.1,24,3.11,,,0.00,VWS V13.01,2013-06-18 18:33:00,
2013-06-18 14:38:00,74.8,36.7,29.21,North,357,4.0,27.1,25,3.11,,,0.00,VWS V13.01,2013-06-18 18:38:00,
2013-06-18 14:43:00,74.7,37.5,29.21,NNE,18,3.6,27.1,26,3.11,,,0.00,VWS V13.01,2013-06-18 18:43:00,
2013-06-18 14:48:00,74.7,36.5,29.21,ENE,63,0.0,27.1,25,3.11,,,0.00,VWS V13.01,2013-06-18 18:48:00,
2013-06-18 14:53:00,75.2,36.0,29.21,SE,136,2.2,27.1,24,3.11,,,0.00,VWS V13.01,2013-06-18 18:53:00,
2013-06-18 14:58:00,75.9,35.5,29.18,SSE,168,0.0,27.1,23,3.11,,,0.00,VWS V13.01,2013-06-18 18:58:00,
2013-06-18 15:03:00,76.8,35.1,29.18,WNW,286,0.0,27.1,22,3.11,,,0.00,VWS V13.01,2013-06-18 19:03:00,
2013-06-18 15:08:00,77.5,34.6,29.18,SE,144,0.0,27.1,21,3.11,,,0.00,VWS V13.01,2013-06-18 19:08:00,
2013-06-18 15:13:00,77.9,34.9,29.18,SE,133,0.0,27.1,21,3.11,,,0.00,VWS V13.01,2013-06-18 19:13:00,
2013-06-18 15:18:00,77.0,34.1,29.18,North,353,5.4,27.1,21,3.11,,,0.00,VWS V13.01,2013-06-18 19:18:00,
2013-06-18 15:23:00,76.8,34.0,29.18,NNE,21,2.2,27.1,21,3.11,,,0.00,VWS V13.01,2013-06-18 19:23:00,
2013-06-18 15:28:00,77.5,34.6,29.18,NW,304,2.2,27.1,21,3.11,,,0.00,VWS V13.01,2013-06-18 19:28:00,
2013-06-18 15:33:00,78.1,33.8,29.18,NNW,340,3.6,27.1,20,3.11,,,0.00,VWS V13.01,2013-06-18 19:33:00,
2013-06-18 15:38:00,78.3,33.9,29.18,NNE,32,0.0,27.1,20,3.11,,,0.00,VWS V13.01,2013-06-18 19:38:00,
2013-06-18 15:43:00,78.8,30.4,29.18,SE,133,2.2,27.1,17,3.11,,,0.00,VWS V13.01,2013-06-18 19:43:00,
2013-06-18 15:48:00,78.8,34.4,29.18,ESE,117,0.0,27.1,20,3.11,,,0.00,VWS V13.01,2013-06-18 19:48:00,
2013-06-18 15:53:00,79.0,34.5,29.18,SE,128,4.0,27.1,20,3.11,,,0.00,VWS V13.01,2013-06-18 19:53:00,
2013-06-18 15:58:00,79.3,30.8,29.18,SSE,168,0.0,27.1,17,3.11,,,0.00,VWS V13.01,2013-06-18 19:58:00,
2013-06-18 16:03:00,79.0,27.4,29.18,SSW,201,2.7,27.1,15,3.11,,,0.00,VWS V13.01,2013-06-18 20:03:00,
2013-06-18 16:08:00,78.4,31.5,29.18,ESE,112,4.0,27.1,18,3.11,,,0.00,VWS V13.01,2013-06-18 20:08:00,
2013-06-18 16:13:00,78.3,33.9,29.18,ESE,112,0.0,27.1,20,3.11,,,0.00,VWS V13.01,2013-06-18 20:13:00,
2013-06-18 16:18:00,78.6,34.2,29.18,ESE,112,3.1,27.1,20,3.11,,,0.00,VWS V13.01,2013-06-18 20:18:00,
2013-06-18 16:23:00,79.2,30.6,29.18,SE,125,3.6,27.1,17,3.11,,,0.00,VWS V13.01,2013-06-18 20:23:00,
2013-06-18 16:28:00,79.0,30.5,29.18,SW,228,2.2,27.1,17,3.11,,,0.00,VWS V13.01,2013-06-18 20:28:00,
2013-06-18 16:33:00,79.0,30.5,29.18,WNW,292,0.0,27.1,17,3.11,,,0.00,VWS V13.01,2013-06-18 20:33:00,
2013-06-18 16:38:00,78.4,35.3,29.18,ENE,77,4.0,27.1,21,3.11,,,0.00,VWS V13.01,2013-06-18 20:38:00,
2013-06-18 16:43:00,77.7,33.5,29.18,East,85,2.7,27.1,20,3.11,,,0.00,VWS V13.01,2013-06-18 20:43:00,
2013-06-18 16:48:00,77.7,34.7,29.18,ESE,107,3.1,27.1,21,3.11,,,0.00,VWS V13.01,2013-06-18 20:48:00,
2013-06-18 16:53:00,77.7,33.5,29.18,ESE,107,0.0,27.1,20,3.11,,,0.00,VWS V13.01,2013-06-18 20:53:00,
2013-06-18 16:58:00,78.3,33.9,29.18,ESE,106,0.0,27.1,20,3.11,,,0.00,VWS V13.01,2013-06-18 20:58:00,
2013-06-18 17:03:00,79.0,34.5,29.18,ESE,107,0.0,27.1,20,3.11,,,0.00,VWS V13.01,2013-06-18 21:03:00,
2013-06-18 17:08:00,80.1,31.4,29.18,ESE,114,2.7,27.1,17,3.11,,,0.00,VWS V13.01,2013-06-18 21:08:00,
2013-06-18 17:13:00,80.1,28.3,29.18,SW,224,3.6,27.1,15,3.11,,,0.00,VWS V13.01,2013-06-18 21:13:00,
2013-06-18 17:19:00,79.3,30.8,29.18,South,187,3.1,27.1,17,3.11,,,0.00,VWS V13.01,2013-06-18 21:19:00,
2013-06-18 17:24:00,78.6,31.6,29.18,SSW,195,3.6,27.1,18,3.11,,,0.00,VWS V13.01,2013-06-18 21:24:00,
2013-06-18 17:29:00,78.3,33.9,29.18,South,190,0.0,27.1,20,3.11,,,0.00,VWS V13.01,2013-06-18 21:29:00,
2013-06-18 17:34:00,78.8,34.4,29.18,South,191,2.2,27.1,20,3.11,,,0.00,VWS V13.01,2013-06-18 21:34:00,
2013-06-18 17:39:00,79.0,30.5,29.18,South,171,3.1,27.1,17,3.11,,,0.00,VWS V13.01,2013-06-18 21:39:00,
2013-06-18 17:44:00,79.3,30.8,29.18,SW,236,3.6,27.1,17,3.11,,,0.00,VWS V13.01,2013-06-18 21:44:00,
2013-06-18 17:49:00,79.7,31.1,29.18,South,169,2.7,27.1,17,3.11,,,0.00,VWS V13.01,2013-06-18 21:49:00,
2013-06-18 17:54:00,80.2,28.4,29.18,WSW,246,2.7,27.1,15,3.11,,,0.00,VWS V13.01,2013-06-18 21:54:00,
2013-06-18 17:59:00,80.8,27.2,29.15,WNW,302,2.2,27.1,14,3.11,,,0.00,VWS V13.01,2013-06-18 21:59:00,
2013-06-18 18:04:00,81.0,32.1,29.15,East,83,0.0,27.1,17,3.11,,,0.00,VWS V13.01,2013-06-18 22:04:00,
2013-06-18 18:09:00,81.5,27.8,29.15,ESE,106,2.7,27.1,14,3.11,,,0.00,VWS V13.01,2013-06-18 22:09:00,
2013-06-18 18:14:00,81.3,23.9,29.15,SSW,194,4.5,27.1,12,3.11,,,0.00,VWS V13.01,2013-06-18 22:14:00,
2013-06-18 18:19:00,80.4,28.6,29.15,South,179,0.0,27.1,15,3.11,,,0.00,VWS V13.01,2013-06-18 22:19:00,
2013-06-18 18:24:00,80.4,28.6,29.15,ESE,122,2.7,27.1,15,3.11,,,0.00,VWS V13.01,2013-06-18 22:24:00,
2013-06-18 18:29:00,80.2,31.5,29.15,South,179,3.6,27.1,17,3.11,,,0.00,VWS V13.01,2013-06-18 22:29:00,
2013-06-18 18:34:00,80.4,28.6,29.15,SE,146,6.3,27.1,15,3.11,,,0.00,VWS V13.01,2013-06-18 22:34:00,
2013-06-18 18:39:00,80.4,31.7,29.15,SSW,203,3.6,27.1,17,3.11,,,0.00,VWS V13.01,2013-06-18 22:39:00,
2013-06-18 18:44:00,80.8,27.2,29.12,SSE,154,5.4,27.1,14,3.11,,,0.00,VWS V13.01,2013-06-18 22:44:00,
2013-06-18 18:49:00,81.0,27.3,29.12,SE,131,0.0,27.1,14,3.11,,,0.00,VWS V13.01,2013-06-18 22:49:00,
2013-06-18 18:54:00,81.0,23.6,29.12,South,171,3.6,27.1,12,3.11,,,0.00,VWS V13.01,2013-06-18 22:54:00,
2013-06-18 18:59:00,80.8,27.2,29.12,South,187,0.0,27.1,14,3.11,,,0.00,VWS V13.01,2013-06-18 22:59:00,
2013-06-18 19:04:00,80.1,28.3,29.12,South,176,0.0,27.1,15,3.11,,,0.00,VWS V13.01,2013-06-18 23:04:00,
2013-06-18 19:09:00,79.9,28.1,29.12,South,177,0.0,27.1,15,3.11,,,0.00,VWS V13.01,2013-06-18 23:09:00,
2013-06-18 19:14:00,80.1,28.3,29.15,South,176,0.0,27.1,15,3.11,,,0.00,VWS V13.01,2013-06-18 23:14:00,
2013-06-18 19:19:00,80.8,27.2,29.15,South,177,0.0,27.1,14,3.11,,,0.00,VWS V13.01,2013-06-18 23:19:00,
2013-06-18 19:24:00,81.5,27.8,29.15,South,177,0.0,27.1,14,3.11,,,0.00,VWS V13.01,2013-06-18 23:24:00,
2013-06-18 19:29:00,81.7,27.9,29.15,South,177,0.0,27.1,14,3.11,,,0.00,VWS V13.01,2013-06-18 23:29:00,
2013-06-18 19:34:00,81.9,28.0,29.15,South,176,0.0,27.1,14,3.11,,,0.00,VWS V13.01,2013-06-18 23:34:00,
2013-06-18 19:39:00,81.7,27.9,29.15,South,177,0.0,27.1,14,3.11,,,0.00,VWS V13.01,2013-06-18 23:39:00,
2013-06-18 19:44:00,81.5,27.8,29.15,South,177,0.0,27.1,14,3.11,,,0.00,VWS V13.01,2013-06-18 23:44:00,
2013-06-18 19:49:00,81.7,27.9,29.15,South,176,0.0,27.1,14,3.11,,,0.00,VWS V13.01,2013-06-18 23:49:00,
2013-06-18 19:54:00,81.5,32.5,29.15,South,177,0.0,27.1,17,3.11,,,0.00,VWS V13.01,2013-06-18 23:54:00,
2013-06-18 19:59:00,80.4,35.7,29.18,South,177,2.2,27.1,20,3.11,,,0.00,VWS V13.01,2013-06-18 23:59:00,
2013-06-18 20:04:00,79.3,34.8,29.18,South,177,0.0,27.1,20,3.11,,,0.00,VWS V13.01,2013-06-19 00:04:00,
2013-06-18 20:09:00,78.8,35.6,29.18,South,177,0.0,27.1,21,3.11,,,0.00,VWS V13.01,2013-06-19 00:09:00,
2013-06-18 20:14:00,78.1,35.0,29.18,NNW,342,0.0,27.1,21,3.11,,,0.00,VWS V13.01,2013-06-19 00:14:00,
2013-06-18 20:19:00,77.5,35.7,29.18,NNW,342,0.0,27.1,22,3.11,,,0.00,VWS V13.01,2013-06-19 00:19:00,
2013-06-18 20:24:00,77.2,36.5,29.18,NNW,342,0.0,27.1,23,3.11,,,0.00,VWS V13.01,2013-06-19 00:24:00,
2013-06-18 20:29:00,76.5,38.1,29.18,NNW,342,0.0,27.1,25,3.11,,,0.00,VWS V13.01,2013-06-19 00:29:00,
2013-06-18 20:34:00,75.4,42.7,29.18,NNW,342,2.7,27.1,31,3.11,,,0.00,VWS V13.01,2013-06-19 00:34:00,
2013-06-18 20:39:00,74.3,42.6,29.18,ESE,103,2.2,27.1,32,3.11,,,0.00,VWS V13.01,2013-06-19 00:39:00,
2013-06-18 20:44:00,73.8,42.9,29.18,ESE,103,0.0,27.1,33,3.11,,,0.00,VWS V13.01,2013-06-19 00:44:00,
2013-06-18 20:49:00,73.4,43.3,29.18,ESE,103,2.7,27.1,34,3.11,,,0.00,VWS V13.01,2013-06-19 00:49:00,
2013-06-18 20:54:00,72.9,44.4,29.18,ESE,103,0.0,27.1,36,3.11,,,0.00,VWS V13.01,2013-06-19 00:54:00,
2013-06-18 20:59:00,72.5,44.1,29.18,ESE,103,0.0,27.1,36,3.11,,,0.00,VWS V13.01,2013-06-19 00:59:00,
2013-06-18 21:04:00,72.3,43.9,29.18,ESE,103,0.0,27.1,36,3.11,,,0.00,VWS V13.01,2013-06-19 01:04:00,
2013-06-18 21:09:00,72.0,46.3,29.18,ESE,103,3.6,27.1,40,3.11,,,0.00,VWS V13.01,2013-06-19 01:09:00,
2013-06-18 21:14:00,71.2,47.0,29.18,ESE,103,0.0,27.1,42,3.11,,,0.00,VWS V13.01,2013-06-19 01:14:00,
2013-06-18 21:19:00,70.9,46.7,29.18,ESE,103,0.0,27.1,42,3.11,,,0.00,VWS V13.01,2013-06-19 01:19:00,
2013-06-18 21:24:00,70.5,47.0,29.18,ESE,103,0.0,27.1,43,3.11,,,0.00,VWS V13.01,2013-06-19 01:24:00,
2013-06-18 21:29:00,70.3,48.0,29.21,ESE,115,3.6,27.1,45,3.11,,,0.00,VWS V13.01,2013-06-19 01:29:00,
2013-06-18 21:34:00,70.2,49.6,29.21,ENE,71,0.0,27.1,48,3.11,,,0.00,VWS V13.01,2013-06-19 01:34:00,
2013-06-18 21:39:00,70.0,50.0,29.21,East,100,2.7,27.1,49,3.11,,,0.00,VWS V13.01,2013-06-19 01:39:00,
2013-06-18 21:44:00,69.8,49.8,29.21,East,100,0.0,27.1,49,3.11,,,0.00,VWS V13.01,2013-06-19 01:44:00,
2013-06-18 21:49:00,69.6,49.6,29.21,East,100,0.0,27.1,49,3.11,,,0.00,VWS V13.01,2013-06-19 01:49:00,
2013-06-18 21:54:00,69.8,49.8,29.21,East,100,2.7,27.1,49,3.11,,,0.00,VWS V13.01,2013-06-19 01:54:00,
2013-06-18 22:00:00,69.8,50.3,29.21,WNW,301,2.7,27.1,50,3.11,,,0.00,VWS V13.01,2013-06-19 02:00:00,
2013-06-18 22:05:00,70.0,50.5,29.21,NNW,330,0.0,27.1,50,3.11,,,0.00,VWS V13.01,2013-06-19 02:05:00,
2013-06-18 22:11:00,69.8,50.3,29.23,NNW,330,0.0,27.1,50,3.11,,,0.00,VWS V13.01,2013-06-19 02:11:00,
2013-06-18 22:16:00,69.8,50.3,29.23,NW,308,3.1,27.1,50,3.11,,,0.00,VWS V13.01,2013-06-19 02:16:00,
2013-06-18 22:21:00,70.0,52.6,29.23,North,349,4.0,27.1,54,3.11,,,0.00,VWS V13.01,2013-06-19 02:21:00,
2013-06-18 22:26:00,70.3,49.7,29.23,NW,310,2.2,27.1,48,3.11,,,0.00,VWS V13.01,2013-06-19 02:26:00,
2013-06-18 22:31:00,71.1,34.5,29.26,NNW,337,6.3,27.1,26,3.11,,,0.00,VWS V13.01,2013-06-19 02:31:00,
2013-06-18 22:36:00,71.1,35.4,29.26,North,353,8.3,27.1,27,3.11,,,0.00,VWS V13.01,2013-06-19 02:36:00,
2013-06-18 22:41:00,69.4,39.1,29.26,NW,325,5.8,27.1,33,3.11,,,0.00,VWS V13.01,2013-06-19 02:41:00,
2013-06-18 22:46:00,67.8,41.3,29.26,WNW,302,4.5,27.1,38,3.15,,,0.04,VWS V13.01,2013-06-19 02:46:00,
2013-06-18 22:51:00,66.9,42.5,29.26,North,357,2.7,27.1,41,3.19,,,0.08,VWS V13.01,2013-06-19 02:51:00,
2013-06-18 22:56:00,66.6,43.4,29.26,WNW,292,3.1,27.1,43,3.19,,,0.08,VWS V13.01,2013-06-19 02:56:00,
2013-06-18 23:01:00,66.2,44.2,29.26,SW,214,0.0,27.1,45,3.23,,,0.12,VWS V13.01,2013-06-19 03:01:00,
2013-06-18 23:06:00,66.4,45.6,29.26,NE,37,3.6,27.1,47,3.23,,,0.12,VWS V13.01,2013-06-19 03:06:00,
2013-06-18 23:12:00,66.4,44.4,29.26,ESE,112,3.6,27.1,45,3.23,,,0.12,VWS V13.01,2013-06-19 03:12:00,
2013-06-18 23:16:00,66.4,44.4,29.26,South,173,0.0,27.1,45,3.23,,,0.12,VWS V13.01,2013-06-19 03:16:00,
2013-06-18 23:22:00,66.2,44.2,29.26,SE,129,2.2,27.1,45,3.23,,,0.12,VWS V13.01,2013-06-19 03:22:00,
2013-06-18 23:27:00,66.0,45.2,29.26,SE,129,0.0,27.1,47,3.23,,,0.12,VWS V13.01,2013-06-19 03:27:00,
2013-06-18 23:31:00,65.8,45.6,29.23,SE,129,2.2,27.1,48,3.23,,,0.12,VWS V13.01,2013-06-19 03:31:00,
2013-06-18 23:37:00,65.7,46.5,29.23,SE,132,0.0,27.1,50,3.23,,,0.12,VWS V13.01,2013-06-19 03:37:00,
2013-06-18 23:42:00,65.7,47.6,29.23,East,98,3.6,27.1,52,3.23,,,0.12,VWS V13.01,2013-06-19 03:42:00,
2013-06-18 23:47:00,65.5,48.9,29.23,ESE,113,0.0,27.1,55,3.23,,,0.12,VWS V13.01,2013-06-19 03:47:00,
2013-06-18 23:52:00,65.1,49.0,29.23,ESE,113,0.0,27.1,56,3.23,,,0.12,VWS V13.01,2013-06-19 03:52:00,
2013-06-18 23:57:00,65.1,49.5,29.23,East,97,2.7,27.1,57,3.23,,,0.12,VWS V13.01,2013-06-19 03:57:00,